Archival Weather

NSFA McMurdo Sound

NSFA McMurdo Sound, Antarctica (NZCM)

Report from: Tuesday, June 6, 2023 4:55 PM UTC
Current time: Tuesday, July 16, 2024 3:15 PM UTC

Current weather – Weather history – Daily summaries
Weather forecast

Temperature-21.9°C (-7.4°F)
Dew point-34.2°C (-29.6°F)
Winds Calm
Visibility6.2 mi. (10 km)
Clouds Few clouds 14,000 ft. (4,267 m)
Altimeter28.85 in.Hg (977 mB)
Relative humidity32 %
Density altitude-6,923 ft. (-2,110 m)
Sea-level pressure107.8 kPa (1078 mB, 31.82 in.Hg)
Remarks Fully automated report
Automated weather observing station with precipitation discriminator
Flight conditions Visual Meteorological Conditions
Raw dataNZCM 061655Z AUTO 00000KT 9999 FEW140 M22/M34 A2885 RMK AO2 SLP776 T12191342
An error has occurred. This application may no longer respond until reloaded. Reload 🗙